Time;durP1;ratioP1;P1;durP2;ratioP2;P2;SDS_P1;SDS_P2;PMS_P1;PMS_P2;Temp;Humidity;BMP_temperature;BMP_pressure;BME280_temperature;BME280_humidity;BME280_pressure;Samples;Min_cycle;Max_cycle;Signal;HPM_P1;HPM_P2
2021/12/22 00:01:36;;;;;;;0.40;0.40;;;-2.60;99.90;;;;;;5072847;28;20028;-69
2021/12/22 00:04:03;;;;;;;0.30;0.30;;;-2.70;99.90;;;;;;5072893;28;20095;-67
2021/12/22 00:06:32;;;;;;;0.10;0.10;;;-2.70;99.90;;;;;;5074377;28;20029;-68
2021/12/22 00:08:59;;;;;;;0.20;0.20;;;-2.60;99.90;;;;;;5080246;28;20036;-68
2021/12/22 00:11:28;;;;;;;0.10;0.10;;;-2.60;99.90;;;;;;5092775;28;20085;-68
2021/12/22 00:13:54;;;;;;;0.10;0.10;;;-2.60;99.90;;;;;;5092839;28;20082;-68
2021/12/22 00:16:20;;;;;;;0.13;0.13;;;-2.60;99.90;;;;;;5092787;28;20036;-68
2021/12/22 00:18:46;;;;;;;0.30;0.30;;;-2.70;99.90;;;;;;5094251;28;20116;-68
2021/12/22 00:21:12;;;;;;;0.57;0.50;;;-2.80;99.90;;;;;;5092556;28;20063;-68
2021/12/22 00:23:38;;;;;;;1.00;1.00;;;-2.80;99.90;;;;;;5093801;28;20032;-68
2021/12/22 00:26:04;;;;;;;0.15;0.15;;;-2.80;99.90;;;;;;5093571;28;20036;-68
2021/12/22 00:28:32;;;;;;;0.10;0.10;;;-2.80;99.90;;;;;;5092615;28;20093;-68
2021/12/22 00:30:58;;;;;;;0.40;0.40;;;-2.90;99.90;;;;;;5093693;28;20036;-68
2021/12/22 00:33:27;;;;;;;1.38;1.33;;;-2.90;99.90;;;;;;5092673;28;20109;-68
2021/12/22 00:35:53;;;;;;;0.30;0.30;;;-2.90;99.90;;;;;;5093651;28;20064;-68
2021/12/22 00:38:21;;;;;;;0.20;0.20;;;-2.80;99.90;;;;;;5092598;28;20109;-68
2021/12/22 00:40:48;;;;;;;0.80;0.80;;;-2.80;99.90;;;;;;5071727;28;20040;-68
2021/12/22 00:43:15;;;;;;;0.10;0.10;;;-2.90;99.90;;;;;;5072202;28;20103;-68
2021/12/22 00:45:42;;;;;;;0.20;0.20;;;-2.90;99.90;;;;;;5071692;28;20048;-68
2021/12/22 00:48:11;;;;;;;1.08;1.08;;;-2.90;99.90;;;;;;5073075;28;20032;-68
2021/12/22 00:50:39;;;;;;;0.15;0.15;;;-2.90;99.90;;;;;;5071527;28;20185;-68
2021/12/22 00:53:05;;;;;;;0.20;0.20;;;-3.00;99.90;;;;;;5071871;28;20093;-68
2021/12/22 00:55:32;;;;;;;0.35;0.35;;;-3.00;99.90;;;;;;5072726;28;20118;-69
2021/12/22 00:57:58;;;;;;;0.25;0.25;;;-3.10;99.90;;;;;;5072893;28;20435;-68
2021/12/22 01:00:26;;;;;;;0.10;0.10;;;-3.20;99.90;;;;;;5072924;28;20032;-68
2021/12/22 01:02:53;;;;;;;1.65;1.55;;;-3.20;99.90;;;;;;5072901;28;20036;-68
2021/12/22 01:05:19;;;;;;;0.57;0.57;;;-3.10;99.90;;;;;;5072954;28;20033;-68
2021/12/22 01:07:47;;;;;;;0.38;0.38;;;-3.00;99.90;;;;;;5072835;28;20028;-69
2021/12/22 01:10:18;;;;;;;0.30;0.30;;;-3.00;99.90;;;;;;5089326;28;20621;-69
2021/12/22 01:12:43;;;;;;;0.20;0.20;;;-3.00;99.90;;;;;;5091923;28;20082;-66
2021/12/22 01:15:13;;;;;;;0.10;0.10;;;-2.90;99.90;;;;;;5092614;28;20480;-66
2021/12/22 01:17:44;;;;;;;0.10;0.10;;;-2.90;99.90;;;;;;5092908;28;20024;-68
2021/12/22 01:20:25;;;;;;;0.10;0.10;;;-3.00;99.90;;;;;;5091523;28;20030;-66
2021/12/22 01:23:01;;;;;;;0.63;0.63;;;-2.90;99.90;;;;;;5091847;28;20173;-67
2021/12/22 01:25:27;;;;;;;1.63;1.55;;;-3.00;99.90;;;;;;5091692;28;20059;-68
2021/12/22 01:27:53;;;;;;;0.70;0.63;;;-3.10;99.90;;;;;;5092792;28;20515;-67
2021/12/22 01:30:24;;;;;;;1.08;1.08;;;-3.10;99.90;;;;;;5092314;28;20473;-67
2021/12/22 01:32:55;;;;;;;0.10;0.10;;;-3.10;99.90;;;;;;5092668;28;20480;-67
2021/12/22 01:35:26;;;;;;;2.42;2.28;;;-3.20;99.90;;;;;;5092410;28;20047;-67
2021/12/22 01:37:52;;;;;;;0.15;0.15;;;-3.20;99.90;;;;;;5091417;28;20040;-68
2021/12/22 01:40:20;;;;;;;0.60;0.60;;;-3.20;99.90;;;;;;5074330;28;20024;-68
2021/12/22 01:42:47;;;;;;;0.17;0.17;;;-3.30;99.90;;;;;;5070936;28;20036;-68
2021/12/22 01:45:37;;;;;;;0.10;0.10;;;-3.20;99.90;;;;;;5071936;28;20425;-68
2021/12/22 01:50:53;;;;;;;0.13;0.13;;;-3.20;99.90;;;;;;5071982;28;20039;-68
2021/12/22 01:53:22;;;;;;;0.20;0.20;;;-3.30;99.90;;;;;;5072117;28;20040;-68
2021/12/22 01:56:03;;;;;;;0.47;0.47;;;-3.30;99.90;;;;;;5071740;28;20081;-68
2021/12/22 01:58:44;;;;;;;0.25;0.25;;;-3.30;99.90;;;;;;5070705;28;20032;-67
2021/12/22 02:01:12;;;;;;;0.65;0.65;;;-3.20;99.90;;;;;;5071763;28;20024;-68
2021/12/22 02:03:39;;;;;;;0.10;0.10;;;-3.30;99.90;;;;;;5071005;28;20085;-67
2021/12/22 02:06:06;;;;;;;0.38;0.38;;;-3.20;99.90;;;;;;5071622;28;20427;-68
2021/12/22 02:08:37;;;;;;;0.88;0.57;;;-3.20;99.90;;;;;;5074667;28;20524;-68
2021/12/22 02:11:05;;;;;;;0.82;0.43;;;-3.20;99.90;;;;;;5091697;28;20043;-68
2021/12/22 02:13:36;;;;;;;0.10;0.10;;;-3.10;99.90;;;;;;5090687;28;20028;-67
2021/12/22 02:16:09;;;;;;;0.35;0.35;;;-3.10;99.90;;;;;;5090632;28;20032;-68
2021/12/22 02:18:38;;;;;;;0.28;0.28;;;-3.10;99.90;;;;;;5074810;28;20044;-68
2021/12/22 02:21:05;;;;;;;0.32;0.32;;;-3.10;99.90;;;;;;5091781;28;20040;-68
2021/12/22 02:23:33;;;;;;;0.20;0.20;;;-3.10;99.90;;;;;;5092129;28;20032;-68
2021/12/22 02:26:08;;;;;;;0.28;0.28;;;-3.20;99.90;;;;;;5091771;28;20047;-68
2021/12/22 02:28:36;;;;;;;0.20;0.20;;;-3.20;99.90;;;;;;5090588;28;20040;-68
2021/12/22 02:31:03;;;;;;;0.10;0.10;;;-3.20;99.90;;;;;;5091794;28;20035;-68
2021/12/22 02:33:37;;;;;;;0.10;0.10;;;-3.20;99.90;;;;;;5091672;28;20036;-68
2021/12/22 02:36:09;;;;;;;1.55;1.45;;;-3.10;99.90;;;;;;5091456;28;20465;-68
2021/12/22 02:38:44;;;;;;;10.63;1.90;;;-3.10;99.90;;;;;;5088567;28;20036;-68
2021/12/22 02:41:14;;;;;;;0.30;0.30;;;-3.10;99.90;;;;;;5071436;28;20028;-68
2021/12/22 02:43:46;;;;;;;2.33;2.13;;;-3.10;99.90;;;;;;5071339;28;20033;-68
2021/12/22 02:46:14;;;;;;;0.25;0.25;;;-3.10;99.90;;;;;;5071023;28;20068;-68
2021/12/22 02:48:42;;;;;;;0.40;0.40;;;-3.20;99.90;;;;;;5071432;28;20035;-68
2021/12/22 02:51:08;;;;;;;0.10;0.10;;;-3.20;99.90;;;;;;5070146;28;20040;-68
2021/12/22 02:53:45;;;;;;;3.88;1.90;;;-3.20;99.90;;;;;;5071276;28;20031;-68
2021/12/22 02:59:00;;;;;;;0.30;0.30;;;-3.20;99.90;;;;;;5071222;28;20484;-69
2021/12/22 03:04:10;;;;;;;1.33;1.25;;;-3.30;99.90;;;;;;5071168;28;20062;-69
2021/12/22 03:07:23;;;;;;;0.93;0.40;;;-3.40;99.90;;;;;;5070237;28;20033;-69
2021/12/22 03:09:31;;;;;;;0.63;0.63;;;-3.40;99.90;;;;;;5062606;28;20052;-69
2021/12/22 03:12:05;;;;;;;0.10;0.10;;;-3.40;99.90;;;;;;5071040;28;20123;-69
2021/12/22 03:14:31;;;;;;;0.40;0.40;;;-3.50;99.90;;;;;;5072410;28;20056;-69
2021/12/22 03:16:58;;;;;;;0.52;0.52;;;-3.50;99.90;;;;;;5074828;28;20505;-69
2021/12/22 03:19:30;;;;;;;0.10;0.10;;;-3.50;99.90;;;;;;5074583;28;20523;-69
2021/12/22 03:22:02;;;;;;;0.20;0.20;;;-3.60;99.90;;;;;;5074762;28;20064;-69
2021/12/22 03:24:30;;;;;;;0.10;0.10;;;-3.60;99.90;;;;;;5073353;28;20568;-69
2021/12/22 03:27:00;;;;;;;0.30;0.30;;;-3.60;99.90;;;;;;5074637;28;20047;-69
2021/12/22 03:29:26;;;;;;;1.85;1.75;;;-3.60;99.90;;;;;;5074311;28;20852;-69
2021/12/22 03:31:52;;;;;;;0.20;0.20;;;-3.70;99.90;;;;;;5074576;28;20477;-69
2021/12/22 03:34:18;;;;;;;0.10;0.10;;;-3.70;99.90;;;;;;5074282;28;20393;-68
2021/12/22 03:36:44;;;;;;;0.10;0.10;;;-3.80;99.90;;;;;;5074364;28;20029;-68
2021/12/22 03:39:13;;;;;;;0.50;0.47;;;-3.80;99.90;;;;;;5074515;28;20473;-68
2021/12/22 03:41:40;;;;;;;4.38;2.40;;;-3.90;99.90;;;;;;5074335;28;20028;-68
2021/12/22 03:44:07;;;;;;;0.82;0.82;;;-3.90;99.90;;;;;;5073450;28;20090;-68
2021/12/22 03:46:34;;;;;;;0.30;0.30;;;-4.00;99.90;;;;;;5074093;28;20056;-67
2021/12/22 03:49:00;;;;;;;0.68;0.60;;;-4.00;99.90;;;;;;5074231;28;20028;-67
2021/12/22 03:51:27;;;;;;;0.25;0.25;;;-4.00;99.90;;;;;;5074304;28;20041;-67
2021/12/22 03:53:53;;;;;;;0.10;0.10;;;-4.10;99.90;;;;;;5074042;28;20033;-68
2021/12/22 03:56:19;;;;;;;2.30;1.58;;;-4.00;99.90;;;;;;5074271;28;20020;-68
2021/12/22 03:58:46;;;;;;;0.10;0.10;;;-4.00;99.90;;;;;;5074035;28;20490;-68
2021/12/22 04:01:11;;;;;;;1.65;1.55;;;-3.90;99.90;;;;;;5073881;28;20581;-68
2021/12/22 04:03:39;;;;;;;0.20;0.20;;;-4.10;99.90;;;;;;5074024;28;20056;-68
2021/12/22 04:06:05;;;;;;;0.20;0.20;;;-4.10;99.90;;;;;;5073848;28;20033;-68
2021/12/22 04:08:31;;;;;;;0.17;0.17;;;-4.00;99.90;;;;;;5073666;28;20120;-68
2021/12/22 04:10:58;;;;;;;0.10;0.10;;;-4.00;99.90;;;;;;5073882;28;20108;-68
2021/12/22 04:13:23;;;;;;;2.65;2.55;;;-4.00;99.90;;;;;;5073539;28;20058;-68
2021/12/22 04:15:50;;;;;;;0.10;0.10;;;-4.10;99.90;;;;;;5073827;28;20513;-68
2021/12/22 04:18:19;;;;;;;0.35;0.35;;;-4.00;99.90;;;;;;5073774;28;20041;-68
2021/12/22 04:20:45;;;;;;;0.20;0.20;;;-3.90;99.90;;;;;;5072690;28;20036;-68
2021/12/22 04:23:11;;;;;;;0.10;0.10;;;-3.90;99.90;;;;;;5073445;28;20115;-68
2021/12/22 04:25:37;;;;;;;4.72;1.42;;;-3.80;99.90;;;;;;5073024;28;20108;-68
2021/12/22 04:28:09;;;;;;;0.10;0.10;;;-4.00;99.90;;;;;;5073633;28;20097;-68
2021/12/22 04:30:41;;;;;;;1.00;1.00;;;-4.10;99.90;;;;;;5073250;28;20028;-68
2021/12/22 04:33:07;;;;;;;0.20;0.20;;;-4.00;99.90;;;;;;5073497;28;20032;-68
2021/12/22 04:35:33;;;;;;;0.20;0.20;;;-4.00;99.90;;;;;;5073121;28;20427;-68
2021/12/22 04:38:00;;;;;;;0.20;0.20;;;-4.00;99.90;;;;;;5072357;28;20039;-68
2021/12/22 04:40:26;;;;;;;0.17;0.17;;;-4.00;99.90;;;;;;5072991;28;20038;-69
2021/12/22 04:42:52;;;;;;;0.45;0.45;;;-4.00;99.90;;;;;;5073135;28;20546;-69
2021/12/22 04:45:18;;;;;;;0.35;0.35;;;-4.00;99.90;;;;;;5071759;28;20044;-67
2021/12/22 04:47:45;;;;;;;0.20;0.20;;;-4.10;99.90;;;;;;5073333;28;20041;-68
2021/12/22 04:50:16;;;;;;;2.30;1.95;;;-4.10;99.90;;;;;;5073221;28;20106;-69
2021/12/22 04:55:19;;;;;;;0.20;0.20;;;-4.30;99.90;;;;;;5073094;28;20047;-68
2021/12/22 04:57:45;;;;;;;0.68;0.68;;;-4.30;99.90;;;;;;5071742;28;20469;-68
2021/12/22 05:00:14;;;;;;;0.10;0.10;;;-4.20;99.90;;;;;;5072751;28;20036;-68
2021/12/22 05:02:40;;;;;;;0.10;0.10;;;-4.30;99.90;;;;;;5071832;28;20066;-68
2021/12/22 05:05:07;;;;;;;0.20;0.20;;;-4.30;99.90;;;;;;5072423;28;20068;-68
2021/12/22 05:07:32;;;;;;;1.25;1.23;;;-4.30;99.90;;;;;;5072727;28;20048;-68
2021/12/22 05:09:58;;;;;;;0.10;0.10;;;-4.40;99.90;;;;;;5072475;28;20040;-67
2021/12/22 05:12:24;;;;;;;0.20;0.20;;;-4.40;99.90;;;;;;5072752;28;20024;-68
2021/12/22 05:14:51;;;;;;;0.32;0.32;;;-4.40;99.90;;;;;;5072452;28;20036;-67
2021/12/22 05:17:22;;;;;;;0.20;0.20;;;-4.50;99.90;;;;;;5072514;28;20381;-68
2021/12/22 05:19:48;;;;;;;2.13;1.93;;;-4.50;99.90;;;;;;5071323;28;20091;-69
2021/12/22 05:22:14;;;;;;;0.20;0.20;;;-4.20;99.90;;;;;;5072265;28;20336;-71
2021/12/22 05:24:42;;;;;;;0.38;0.38;;;-4.10;99.90;;;;;;5065768;28;20047;-71
2021/12/22 05:27:11;;;;;;;3.22;1.58;;;-4.30;99.90;;;;;;5062877;28;20036;-71
2021/12/22 05:29:38;;;;;;;0.30;0.30;;;-4.40;99.90;;;;;;5050889;28;20029;-70
2021/12/22 05:32:06;;;;;;;0.20;0.20;;;-4.50;99.90;;;;;;5052275;28;20436;-69
2021/12/22 05:34:33;;;;;;;0.30;0.30;;;-4.60;99.90;;;;;;5066289;28;20452;-68
2021/12/22 05:36:59;;;;;;;0.50;0.50;;;-4.60;99.90;;;;;;5072040;28;20060;-66
2021/12/22 05:39:25;;;;;;;0.30;0.30;;;-4.50;99.90;;;;;;5071899;28;20052;-65
2021/12/22 05:41:51;;;;;;;0.20;0.20;;;-4.50;99.90;;;;;;5072078;28;20033;-66
2021/12/22 05:44:17;;;;;;;3.75;3.28;;;-4.50;99.90;;;;;;5071780;28;20038;-67
2021/12/22 05:46:43;;;;;;;0.25;0.25;;;-4.60;99.90;;;;;;5066241;28;20451;-68
2021/12/22 05:49:08;;;;;;;0.20;0.20;;;-4.60;99.90;;;;;;5067163;28;20039;-67
2021/12/22 05:51:34;;;;;;;3.45;1.27;;;-4.60;99.90;;;;;;5056648;28;20831;-67
2021/12/22 05:54:01;;;;;;;0.10;0.10;;;-4.60;99.90;;;;;;5068218;28;20401;-69
2021/12/22 05:56:28;;;;;;;0.20;0.20;;;-4.70;99.90;;;;;;5056854;28;20037;-73
2021/12/22 05:58:54;;;;;;;0.22;0.22;;;-4.70;99.90;;;;;;5051692;28;20029;-73
2021/12/22 06:01:20;;;;;;;0.20;0.20;;;-4.60;99.90;;;;;;5067126;28;20375;-73
2021/12/22 06:03:46;;;;;;;2.65;2.45;;;-4.50;99.90;;;;;;5050493;28;20037;-73
2021/12/22 06:06:12;;;;;;;0.20;0.20;;;-4.30;99.90;;;;;;5051631;28;20390;-73
2021/12/22 06:08:38;;;;;;;1.25;1.20;;;-4.20;99.90;;;;;;5051361;28;20039;-74
2021/12/22 06:11:04;;;;;;;0.25;0.25;;;-4.20;99.90;;;;;;5050311;28;20041;-73
2021/12/22 06:13:29;;;;;;;0.20;0.20;;;-4.10;99.90;;;;;;5050270;28;20071;-74
2021/12/22 06:15:55;;;;;;;0.15;0.15;;;-4.20;99.90;;;;;;5051550;28;20098;-73
2021/12/22 06:18:21;;;;;;;0.50;0.50;;;-4.10;99.90;;;;;;5051100;28;20060;-74
2021/12/22 06:20:47;;;;;;;0.70;0.70;;;-4.20;99.90;;;;;;5051466;28;20033;-74
2021/12/22 06:23:13;;;;;;;0.52;0.52;;;-4.20;99.90;;;;;;5051300;28;20162;-73
2021/12/22 06:25:39;;;;;;;1.38;1.33;;;-4.20;99.90;;;;;;5067994;28;20389;-71
2021/12/22 06:28:06;;;;;;;2.17;1.45;;;-4.30;99.90;;;;;;5083482;28;20036;-72
2021/12/22 06:30:33;;;;;;;0.20;0.20;;;-4.30;99.90;;;;;;5051084;28;20493;-71
2021/12/22 06:32:59;;;;;;;2.22;2.08;;;-4.40;99.90;;;;;;5051423;28;20083;-72
2021/12/22 06:35:25;;;;;;;1.85;1.75;;;-4.40;99.90;;;;;;5050009;28;20037;-71
2021/12/22 06:37:52;;;;;;;1.33;1.15;;;-4.50;99.90;;;;;;5051627;28;20465;-71
2021/12/22 06:40:19;;;;;;;0.20;0.20;;;-4.50;99.90;;;;;;5066712;28;20025;-71
2021/12/22 06:42:45;;;;;;;0.52;0.52;;;-4.40;99.90;;;;;;5063957;28;20119;-71
2021/12/22 06:45:13;;;;;;;1.17;0.63;;;-4.40;99.90;;;;;;5070054;28;20112;-71
2021/12/22 06:47:40;;;;;;;0.10;0.10;;;-4.40;99.90;;;;;;5071346;28;20032;-69
2021/12/22 06:50:08;;;;;;;4.00;2.90;;;-4.50;99.90;;;;;;5065568;28;20040;-70
2021/12/22 06:52:34;;;;;;;0.60;0.60;;;-4.60;99.90;;;;;;5064268;28;20064;-71
2021/12/22 06:55:00;;;;;;;0.20;0.20;;;-4.80;99.90;;;;;;5059243;28;20400;-71
2021/12/22 06:57:29;;;;;;;0.20;0.20;;;-4.70;99.90;;;;;;5053674;28;20082;-72
2021/12/22 06:59:56;;;;;;;0.80;0.80;;;-4.70;99.90;;;;;;5063932;28;20039;-71
2021/12/22 07:02:24;;;;;;;0.17;0.17;;;-4.70;99.90;;;;;;5073246;28;20035;-71
2021/12/22 07:04:50;;;;;;;0.22;0.22;;;-4.80;99.90;;;;;;5074950;28;20039;-72
2021/12/22 07:07:15;;;;;;;0.40;0.40;;;-4.90;99.90;;;;;;5074879;28;20107;-71
2021/12/22 07:09:44;;;;;;;2.17;2.08;;;-4.90;99.90;;;;;;5074886;28;20037;-71
2021/12/22 07:12:11;;;;;;;0.30;0.30;;;-4.90;99.90;;;;;;5073833;28;20033;-72
2021/12/22 07:14:37;;;;;;;0.20;0.20;;;-4.80;99.90;;;;;;5073292;28;20039;-71
2021/12/22 07:17:03;;;;;;;0.20;0.20;;;-4.80;99.90;;;;;;5073506;28;20029;-71
2021/12/22 07:19:29;;;;;;;0.55;0.55;;;-4.80;99.90;;;;;;5073663;28;20485;-70
2021/12/22 07:21:55;;;;;;;0.10;0.10;;;-4.70;99.90;;;;;;5074775;28;20033;-71
2021/12/22 07:24:22;;;;;;;1.48;1.38;;;-4.70;99.90;;;;;;5074712;28;20426;-70
2021/12/22 07:26:48;;;;;;;5.07;2.85;;;-4.70;99.90;;;;;;5059167;28;20085;-71
2021/12/22 07:29:14;;;;;;;0.20;0.20;;;-4.70;99.90;;;;;;5058945;28;20621;-68
2021/12/22 07:31:40;;;;;;;0.30;0.30;;;-4.70;99.90;;;;;;5074603;28;20039;-71
2021/12/22 07:34:39;;;;;;;0.45;0.45;;;-4.70;99.90;;;;;;5073199;28;20389;-71
2021/12/22 07:37:10;;;;;;;2.78;2.60;;;-4.70;99.90;;;;;;5074474;28;20484;-71
2021/12/22 07:39:35;;;;;;;0.20;0.20;;;-4.60;99.90;;;;;;5073220;28;20036;-71
2021/12/22 07:42:01;;;;;;;0.20;0.20;;;-4.60;99.90;;;;;;5074343;28;20044;-71
2021/12/22 07:44:27;;;;;;;0.10;0.10;;;-4.70;99.90;;;;;;5072834;28;20039;-71
2021/12/22 07:46:53;;;;;;;0.10;0.10;;;-4.60;99.90;;;;;;5073977;28;20447;-69
2021/12/22 07:49:18;;;;;;;1.10;1.10;;;-4.60;99.90;;;;;;5074420;28;20064;-70
2021/12/22 07:51:44;;;;;;;0.13;0.13;;;-4.60;99.90;;;;;;5074275;28;20090;-71
2021/12/22 07:54:10;;;;;;;0.17;0.17;;;-4.50;99.90;;;;;;5074306;28;20500;-71
2021/12/22 07:56:36;;;;;;;0.10;0.10;;;-4.50;99.90;;;;;;5072685;28;20103;-72
2021/12/22 07:59:02;;;;;;;0.38;0.38;;;-4.40;99.90;;;;;;5074231;28;20136;-71
2021/12/22 08:01:29;;;;;;;0.20;0.20;;;-4.40;99.90;;;;;;5071093;28;20045;-71
2021/12/22 08:03:55;;;;;;;0.63;0.63;;;-4.40;99.90;;;;;;5074101;28;20028;-71
2021/12/22 08:06:21;;;;;;;0.13;0.13;;;-4.40;99.90;;;;;;5074168;28;20496;-72
2021/12/22 08:08:47;;;;;;;0.20;0.20;;;-4.50;99.90;;;;;;5073762;28;20025;-72
2021/12/22 08:11:13;;;;;;;5.05;4.40;;;-4.40;99.90;;;;;;5073965;28;20043;-71
2021/12/22 08:13:39;;;;;;;2.47;1.95;;;-4.40;99.90;;;;;;5073724;28;20393;-71
2021/12/22 08:16:05;;;;;;;3.88;2.05;;;-4.30;99.90;;;;;;5073825;28;20029;-71
2021/12/22 08:18:31;;;;;;;7.20;3.55;;;-4.30;99.90;;;;;;5072571;28;20346;-71
2021/12/22 08:20:57;;;;;;;0.43;0.43;;;-4.30;99.90;;;;;;5073884;28;20058;-71
2021/12/22 08:23:22;;;;;;;0.15;0.15;;;-4.20;99.90;;;;;;5073536;28;20037;-72
2021/12/22 08:25:49;;;;;;;0.60;0.60;;;-4.20;99.90;;;;;;5073369;28;20044;-70
2021/12/22 08:28:15;;;;;;;0.20;0.20;;;-4.20;99.90;;;;;;5073836;28;20074;-71
2021/12/22 08:30:42;;;;;;;5.53;3.10;;;-4.10;99.90;;;;;;5073180;28;20033;-71
2021/12/22 08:33:20;;;;;;;0.35;0.35;;;-4.00;99.90;;;;;;5072321;28;20039;-71
2021/12/22 08:38:51;;;;;;;0.20;0.20;;;-3.80;99.90;;;;;;5073231;28;20385;-71
2021/12/22 08:41:33;;;;;;;1.75;1.55;;;-3.80;99.90;;;;;;5073209;28;20045;-71
2021/12/22 08:44:05;;;;;;;0.13;0.13;;;-3.70;99.90;;;;;;5073013;28;20031;-70
2021/12/22 08:46:32;;;;;;;0.90;0.90;;;-3.60;99.90;;;;;;5071665;28;20071;-70
2021/12/22 08:49:00;;;;;;;2.42;1.95;;;-3.60;99.90;;;;;;5072946;28;20040;-71
2021/12/22 08:51:26;;;;;;;0.32;0.32;;;-3.50;99.90;;;;;;5073079;28;20036;-70
2021/12/22 08:53:55;;;;;;;1.48;1.38;;;-3.40;99.90;;;;;;5071980;28;20036;-70
2021/12/22 08:56:21;;;;;;;0.10;0.10;;;-3.30;99.90;;;;;;5073106;28;20032;-70
2021/12/22 08:58:47;;;;;;;0.13;0.13;;;-3.30;99.90;;;;;;5072626;28;20504;-72
2021/12/22 09:01:13;;;;;;;0.38;0.38;;;-3.20;99.90;;;;;;5071600;28;20063;-71
2021/12/22 09:03:39;;;;;;;0.20;0.20;;;-3.10;99.90;;;;;;5072506;28;20060;-71
2021/12/22 09:06:05;;;;;;;0.10;0.10;;;-3.10;99.90;;;;;;5072813;28;20029;-71
2021/12/22 09:08:31;;;;;;;0.63;0.63;;;-2.90;99.90;;;;;;5073084;28;20032;-71
2021/12/22 09:10:57;;;;;;;0.25;0.25;;;-2.80;99.90;;;;;;5072343;28;20388;-70
2021/12/22 09:13:23;;;;;;;0.10;0.10;;;-2.80;99.90;;;;;;5071291;28;20032;-70
2021/12/22 09:15:49;;;;;;;0.13;0.13;;;-2.70;99.90;;;;;;5072703;28;20063;-71
2021/12/22 09:18:17;;;;;;;0.25;0.25;;;-2.50;99.90;;;;;;5072633;28;20032;-70
2021/12/22 09:20:43;;;;;;;1.67;1.60;;;-2.40;99.90;;;;;;5071414;28;20043;-70
2021/12/22 09:23:09;;;;;;;0.10;0.10;;;-2.30;99.90;;;;;;5071108;28;20473;-69
2021/12/22 09:25:38;;;;;;;1.27;1.17;;;-2.30;99.90;;;;;;5072252;28;20029;-69
2021/12/22 09:28:06;;;;;;;7.18;4.07;;;-2.20;99.90;;;;;;5071281;28;20033;-70
2021/12/22 09:30:36;;;;;;;0.15;0.15;;;-2.00;99.90;;;;;;5070480;28;20036;-71
2021/12/22 09:33:14;;;;;;;0.45;0.38;;;-1.90;99.90;;;;;;5072175;28;20111;-71
2021/12/22 09:35:41;;;;;;;0.25;0.25;;;-1.70;99.90;;;;;;5081185;28;20074;-71
2021/12/22 09:38:08;;;;;;;0.17;0.17;;;-1.60;99.90;;;;;;5056959;28;20031;-71
2021/12/22 09:40:35;;;;;;;0.10;0.10;;;-1.60;99.90;;;;;;5072240;28;20035;-71
2021/12/22 09:43:01;;;;;;;0.43;0.43;;;-1.50;99.90;;;;;;5070943;28;20041;-70
2021/12/22 09:45:28;;;;;;;0.20;0.20;;;-1.40;99.90;;;;;;5070286;28;20052;-71
2021/12/22 09:48:18;;;;;;;0.20;0.20;;;-1.20;99.90;;;;;;5054141;28;20117;-71
2021/12/22 09:50:54;;;;;;;0.20;0.20;;;-0.90;99.90;;;;;;5070922;28;20391;-71
2021/12/22 09:53:29;;;;;;;0.68;0.63;;;-0.40;99.90;;;;;;5071406;28;20075;-71
2021/12/22 09:55:56;;;;;;;0.03;0.03;;;0.30;99.90;;;;;;5070659;28;20142;-70
2021/12/22 09:58:22;;;;;;;0.90;0.90;;;1.40;99.90;;;;;;5070490;28;20039;-72
2021/12/22 10:00:50;;;;;;;0.10;0.10;;;2.00;99.90;;;;;;5070266;28;20436;-71
2021/12/22 10:03:16;;;;;;;0.40;0.40;;;2.70;99.90;;;;;;5070702;28;20082;-69
2021/12/22 10:05:44;;;;;;;5.35;2.38;;;3.80;99.90;;;;;;5070577;28;20036;-70
2021/12/22 10:08:22;;;;;;;0.65;0.65;;;4.90;99.90;;;;;;5051375;28;20028;-70
2021/12/22 10:11:07;;;;;;;0.38;0.38;;;4.70;99.90;;;;;;5050422;28;20075;-70
2021/12/22 10:13:33;;;;;;;0.20;0.20;;;3.50;99.90;;;;;;5051249;28;20150;-70
2021/12/22 10:16:09;;;;;;;0.00;0.00;;;4.60;99.90;;;;;;5051818;28;20039;-70
2021/12/22 10:18:34;;;;;;;0.90;0.90;;;5.80;99.90;;;;;;5050361;28;20060;-70
2021/12/22 10:21:11;;;;;;;2.13;1.00;;;6.40;99.90;;;;;;5050162;28;20071;-70
2021/12/22 10:23:40;;;;;;;0.00;0.00;;;7.70;97.60;;;;;;5050715;28;20556;-69
2021/12/22 10:26:10;;;;;;;0.50;0.50;;;6.60;97.10;;;;;;5050476;28;20037;-70
2021/12/22 10:29:08;;;;;;;0.55;0.55;;;4.70;99.90;;;;;;5050178;28;20032;-69
2021/12/22 10:31:42;;;;;;;0.98;0.65;;;4.50;99.90;;;;;;5049844;28;20029;-69
2021/12/22 10:34:13;;;;;;;0.75;0.75;;;4.00;99.90;;;;;;5049828;28;20110;-69
2021/12/22 10:36:51;;;;;;;;;;;2.90;99.90;;;;;;5051877;28;20060;-70
2021/12/22 10:39:22;;;;;;;2.38;1.02;;;3.60;99.90;;;;;;5034564;28;20359;-71
2021/12/22 10:41:50;;;;;;;1.05;1.05;;;3.80;99.90;;;;;;5049613;28;20398;-71
2021/12/22 10:44:16;;;;;;;0.50;0.20;;;3.30;99.90;;;;;;5051104;28;20120;-67
2021/12/22 10:46:42;;;;;;;1.20;1.17;;;3.90;99.90;;;;;;5050437;28;20397;-69
2021/12/22 10:49:20;;;;;;;2.80;2.10;;;3.40;99.90;;;;;;5050967;28;20037;-69
2021/12/22 10:51:59;;;;;;;0.15;0.15;;;3.10;99.90;;;;;;5050426;28;20033;-72
2021/12/22 10:54:34;;;;;;;0.50;0.50;;;3.50;99.90;;;;;;5051001;28;20373;-71
2021/12/22 10:57:03;;;;;;;3.47;2.83;;;4.00;99.90;;;;;;5050537;28;20040;-70
2021/12/22 10:59:45;;;;;;;2.40;1.20;;;4.80;99.90;;;;;;5050039;28;20032;-70
2021/12/22 11:02:20;;;;;;;3.83;2.30;;;5.70;99.90;;;;;;5049982;28;20044;-67
2021/12/22 11:04:46;;;;;;;2.38;1.77;;;5.10;99.90;;;;;;5049549;28;20065;-68
2021/12/22 11:07:25;;;;;;;1.65;1.15;;;4.40;99.90;;;;;;5049622;28;20474;-68
2021/12/22 11:09:51;;;;;;;2.15;1.85;;;4.80;99.90;;;;;;5050375;28;20326;-68
2021/12/22 11:12:32;;;;;;;0.17;0.17;;;3.90;99.90;;;;;;5049647;28;20508;-65
2021/12/22 11:14:58;;;;;;;0.40;0.40;;;4.70;99.90;;;;;;5050173;28;20037;-69
2021/12/22 11:17:23;;;;;;;1.38;1.30;;;3.90;99.90;;;;;;5050937;28;20029;-67
2021/12/22 11:20:01;;;;;;;1.40;1.33;;;3.80;99.90;;;;;;5050622;28;20079;-68
2021/12/22 11:22:57;;;;;;;0.52;0.52;;;3.60;99.90;;;;;;5050829;28;20029;-69
2021/12/22 11:25:25;;;;;;;0.63;0.63;;;3.80;99.90;;;;;;5018515;28;20044;-69
2021/12/22 11:27:52;;;;;;;1.23;0.82;;;5.80;99.90;;;;;;5050695;28;20033;-68
2021/12/22 11:30:21;;;;;;;0.52;0.47;;;5.60;99.90;;;;;;5049371;28;20049;-69
2021/12/22 11:32:47;;;;;;;0.93;0.93;;;4.80;99.90;;;;;;5049564;28;20128;-68
2021/12/22 11:35:15;;;;;;;0.80;0.80;;;5.60;99.90;;;;;;5058740;28;20043;-68
2021/12/22 11:37:43;;;;;;;1.75;1.50;;;5.80;99.90;;;;;;5057631;28;20021;-68
2021/12/22 11:40:11;;;;;;;2.40;1.95;;;4.20;99.90;;;;;;5053812;28;20116;-68
2021/12/22 11:42:39;;;;;;;0.60;0.60;;;4.20;99.90;;;;;;5053763;28;20389;-69
2021/12/22 11:45:13;;;;;;;0.20;0.20;;;3.80;99.90;;;;;;5054153;28;20078;-69
2021/12/22 11:47:49;;;;;;;4.15;2.40;;;4.30;99.90;;;;;;5053954;28;20064;-69
2021/12/22 11:50:30;;;;;;;2.88;2.58;;;4.10;99.90;;;;;;5052787;28;20440;-69
2021/12/22 11:53:04;;;;;;;;;;;3.90;99.90;;;;;;5054112;28;20033;-68
2021/12/22 11:55:43;;;;;;;0.45;0.45;;;3.90;99.90;;;;;;5053910;28;19916;-69
2021/12/22 11:58:35;;;;;;;0.15;0.15;;;4.00;99.90;;;;;;5054131;28;20032;-69
2021/12/22 12:01:11;;;;;;;0.52;0.52;;;3.70;99.90;;;;;;5052851;28;20385;-69
2021/12/22 12:03:44;;;;;;;0.17;0.17;;;4.10;99.90;;;;;;5053793;28;20043;-69
2021/12/22 12:06:21;;;;;;;0.77;0.57;;;4.90;99.90;;;;;;5052779;28;20079;-69
2021/12/22 12:08:57;;;;;;;0.10;0.10;;;4.20;99.90;;;;;;5052607;28;20497;-69
2021/12/22 12:11:47;;;;;;;0.40;0.40;;;3.90;99.90;;;;;;5052381;28;20048;-69
2021/12/22 12:14:33;;;;;;;0.60;0.60;;;3.50;99.90;;;;;;5052567;28;20037;-69
2021/12/22 12:23:27;;;;;;;0.80;0.80;;;5.10;99.90;;;;;;5053330;28;20033;-68
2021/12/22 12:26:04;;;;;;;0.57;0.57;;;6.50;99.90;;;;;;5053518;28;20033;-68
2021/12/22 12:28:44;;;;;;;3.03;0.85;;;5.60;99.90;;;;;;5052166;28;20068;-69
2021/12/22 12:31:10;;;;;;;0.30;0.30;;;5.40;99.90;;;;;;5053942;28;20513;-68
2021/12/22 12:33:44;;;;;;;4.30;3.67;;;6.00;99.90;;;;;;5052002;28;20044;-68
2021/12/22 12:36:13;;;;;;;1.17;0.40;;;5.70;99.90;;;;;;5053251;28;20029;-68
2021/12/22 12:38:55;;;;;;;0.28;0.28;;;4.90;99.90;;;;;;5052929;28;20059;-68
2021/12/22 12:41:27;;;;;;;2.80;2.60;;;5.50;99.90;;;;;;5053059;28;20037;-68
2021/12/22 12:44:10;;;;;;;0.43;0.43;;;6.00;99.90;;;;;;5053101;28;20037;-67
2021/12/22 12:46:44;;;;;;;0.38;0.38;;;5.50;99.90;;;;;;5050701;28;20111;-68
2021/12/22 12:49:13;;;;;;;0.57;0.57;;;5.50;99.90;;;;;;5051643;28;20116;-68
2021/12/22 12:51:46;;;;;;;1.63;1.52;;;5.40;99.90;;;;;;5053066;28;20047;-68
2021/12/22 12:54:18;;;;;;;0.30;0.30;;;5.10;99.90;;;;;;5052813;28;20196;-69
2021/12/22 12:56:54;;;;;;;0.20;0.20;;;4.90;99.90;;;;;;5052768;28;20040;-69
2021/12/22 12:59:38;;;;;;;0.10;0.10;;;4.90;99.90;;;;;;5053072;28;20116;-69
2021/12/22 13:02:07;;;;;;;0.35;0.35;;;6.10;99.90;;;;;;5052815;28;20043;-69
2021/12/22 13:04:36;;;;;;;1.40;0.68;;;6.70;99.90;;;;;;5051260;28;20849;-69
2021/12/22 13:07:13;;;;;;;2.03;1.20;;;6.00;99.90;;;;;;5052226;28;20112;-70
2021/12/22 13:09:46;;;;;;;1.27;1.20;;;6.50;99.90;;;;;;5051542;28;20141;-71
2021/12/22 13:12:46;;;;;;;4.50;0.95;;;7.00;99.90;;;;;;5052631;28;20488;-71
2021/12/22 13:18:26;;;;;;;0.50;0.50;;;5.10;99.90;;;;;;5052648;28;20124;-71
2021/12/22 13:20:55;;;;;;;1.30;1.20;;;4.40;99.90;;;;;;5052309;28;20654;-70
2021/12/22 13:23:30;;;;;;;0.10;0.10;;;4.60;99.90;;;;;;5034970;28;20082;-72
2021/12/22 13:25:56;;;;;;;0.57;0.57;;;4.90;99.90;;;;;;5072944;28;20597;-72